createdAt,value
2023-06-08T00:02:47.151Z,5.53
2023-06-08T00:05:54.244Z,4.18
2023-06-08T00:09:00.983Z,3.67
2023-06-08T00:12:09.018Z,3.55
2023-06-08T00:15:16.887Z,3.60
2023-06-08T00:18:46.102Z,5.20
2023-06-08T00:21:54.645Z,5.20
2023-06-08T00:25:02.067Z,3.40
2023-06-08T00:28:13.597Z,6.80
2023-06-08T00:31:24.710Z,5.50
2023-06-08T00:34:32.184Z,4.25
2023-06-08T00:37:48.183Z,4.65
2023-06-08T00:40:53.427Z,3.60
2023-06-08T00:44:00.962Z,3.40
2023-06-08T00:48:00.062Z,3.90
2023-06-08T01:01:16.515Z,4.18
2023-06-08T01:05:30.737Z,4.55
2023-06-08T01:08:50.128Z,3.63
2023-06-08T01:11:57.490Z,3.70
2023-06-08T01:15:29.227Z,4.38
2023-06-08T01:18:42.302Z,3.83
2023-06-08T01:22:11.581Z,3.92
2023-06-08T01:30:39.601Z,4.60
2023-06-08T01:38:32.621Z,4.00
2023-06-08T01:51:50.606Z,4.03
2023-06-08T02:22:02.023Z,4.55
2023-06-08T02:26:19.599Z,4.53
2023-06-08T02:47:14.516Z,5.03
2023-06-08T02:50:20.490Z,6.38
2023-06-08T02:53:30.078Z,5.63
2023-06-08T02:56:37.088Z,7.10
2023-06-08T02:59:43.962Z,6.00
2023-06-08T03:02:48.900Z,5.70
2023-06-08T03:14:26.115Z,5.45
2023-06-08T03:17:43.562Z,5.07
2023-06-08T03:22:13.931Z,5.72
2023-06-08T03:25:34.014Z,5.00
2023-06-08T03:28:45.248Z,5.57
2023-06-08T03:31:52.816Z,5.20
2023-06-08T03:35:00.235Z,5.45
2023-06-08T03:38:12.867Z,5.47
2023-06-08T03:41:24.940Z,6.13
2023-06-08T03:44:29.404Z,6.00
2023-06-08T03:47:42.843Z,5.45
2023-06-08T03:50:54.102Z,6.07
2023-06-08T03:54:27.570Z,5.20
2023-06-08T03:57:45.203Z,5.43
2023-06-08T04:00:56.239Z,10.18
2023-06-08T04:04:04.174Z,5.43
2023-06-08T04:07:12.792Z,8.30
2023-06-08T04:10:28.015Z,5.50
2023-06-08T04:13:42.876Z,6.70
2023-06-08T04:16:51.724Z,5.20
2023-06-08T04:19:56.928Z,5.20
2023-06-08T04:23:11.163Z,5.28
2023-06-08T04:26:20.129Z,5.47
2023-06-08T04:29:32.358Z,5.07
2023-06-08T04:32:37.635Z,6.32
2023-06-08T04:35:45.922Z,6.47
2023-06-08T04:38:55.684Z,5.25
2023-06-08T04:42:06.212Z,5.97
2023-06-08T04:45:13.404Z,5.28
2023-06-08T04:48:23.150Z,5.88
2023-06-08T04:51:41.618Z,6.15
2023-06-08T04:54:54.971Z,5.65
2023-06-08T04:58:02.753Z,6.35
2023-06-08T05:01:10.665Z,5.63
2023-06-08T05:07:25.910Z,5.43
2023-06-08T05:10:32.558Z,5.55
2023-06-08T05:13:37.812Z,6.28
2023-06-08T05:16:45.556Z,5.53
2023-06-08T05:19:53.425Z,5.90
2023-06-08T05:23:01.210Z,5.72
2023-06-08T05:26:08.806Z,6.22
2023-06-08T05:29:15.997Z,5.90
2023-06-08T05:32:23.826Z,5.90
2023-06-08T05:35:31.864Z,5.93
2023-06-08T05:38:36.597Z,5.93
2023-06-08T05:41:46.034Z,5.82
2023-06-08T05:44:52.899Z,5.70
2023-06-08T05:47:59.910Z,6.00
2023-06-08T05:51:05.039Z,5.90
2023-06-08T05:57:17.033Z,7.28
2023-06-08T06:00:21.884Z,6.53
2023-06-08T06:03:32.075Z,7.22
2023-06-08T06:06:39.182Z,6.88
2023-06-08T06:09:48.714Z,8.43
2023-06-08T06:12:55.305Z,8.00
2023-06-08T06:16:05.758Z,7.32
2023-06-08T06:19:11.277Z,7.68
2023-06-08T06:22:21.498Z,8.02
2023-06-08T06:25:34.896Z,7.43
2023-06-08T06:28:54.444Z,7.57
2023-06-08T06:32:00.346Z,18.20
2023-06-08T06:35:12.474Z,14.68
2023-06-08T06:38:36.013Z,8.55
2023-06-08T06:42:28.957Z,7.95
2023-06-08T06:46:04.806Z,7.75
2023-06-08T06:49:14.127Z,7.30
2023-06-08T06:52:58.959Z,8.88
2023-06-08T07:00:03.076Z,9.07
2023-06-08T07:04:26.249Z,8.13
2023-06-08T07:11:18.851Z,8.90
2023-06-08T07:15:02.631Z,9.25
2023-06-08T07:18:15.529Z,8.75
2023-06-08T07:21:25.668Z,8.65
2023-06-08T07:25:58.007Z,8.15
2023-06-08T07:30:01.128Z,8.02
2023-06-08T07:38:14.966Z,8.65
2023-06-08T07:42:06.641Z,9.85
2023-06-08T07:45:52.660Z,9.00
2023-06-08T07:48:59.472Z,8.00
2023-06-08T07:52:04.109Z,8.73
2023-06-08T07:55:08.760Z,8.98
2023-06-08T07:58:13.178Z,9.27
2023-06-08T08:01:20.831Z,8.37
2023-06-08T08:04:25.545Z,8.43
2023-06-08T08:11:13.678Z,8.30
2023-06-08T08:14:31.723Z,9.40
2023-06-08T08:17:40.071Z,9.30
2023-06-08T08:20:50.650Z,13.18
2023-06-08T08:24:12.558Z,13.38
2023-06-08T08:27:20.895Z,8.95
2023-06-08T08:30:30.937Z,10.00
2023-06-08T08:33:35.775Z,8.65
2023-06-08T08:36:49.225Z,8.52
2023-06-08T08:39:54.390Z,11.88
2023-06-08T08:46:30.346Z,9.82
2023-06-08T08:49:45.768Z,21.80
2023-06-08T08:53:00.383Z,23.80
2023-06-08T09:00:15.993Z,15.60
2023-06-08T09:03:21.214Z,12.77
2023-06-08T09:06:35.917Z,16.52
2023-06-08T09:09:42.789Z,9.85
2023-06-08T09:13:01.002Z,9.60
2023-06-08T09:20:43.657Z,7.88
2023-06-08T09:50:21.533Z,10.75
2023-06-08T09:53:50.616Z,11.77
2023-06-08T09:57:09.000Z,11.07
2023-06-08T10:00:43.799Z,10.77
2023-06-08T10:14:28.249Z,13.63
2023-06-08T10:47:17.050Z,11.60
2023-06-08T10:50:33.676Z,11.23
2023-06-08T10:54:03.970Z,11.68
2023-06-08T10:57:16.222Z,17.98
2023-06-08T11:00:45.160Z,17.90
2023-06-08T11:03:51.105Z,18.90
2023-06-08T11:06:56.022Z,16.10
2023-06-08T11:10:05.286Z,13.30
2023-06-08T11:13:14.427Z,10.15
2023-06-08T11:16:24.811Z,9.60
2023-06-08T11:19:37.257Z,10.60
2023-06-08T11:22:47.282Z,9.90
2023-06-08T11:25:53.612Z,10.40
2023-06-08T11:29:03.709Z,11.45
2023-06-08T11:32:15.642Z,11.43
2023-06-08T11:35:21.698Z,11.75
2023-06-08T11:38:28.786Z,11.73
2023-06-08T11:41:34.530Z,11.48
2023-06-08T11:44:39.263Z,11.80
2023-06-08T11:47:58.761Z,12.88
2023-06-08T11:51:11.690Z,13.27
2023-06-08T11:54:19.669Z,11.55
2023-06-08T11:57:58.824Z,13.13
2023-06-08T12:01:12.225Z,11.20
2023-06-08T12:04:17.242Z,11.13
2023-06-08T12:07:21.941Z,11.90
2023-06-08T12:10:38.850Z,11.77
2023-06-08T12:13:45.456Z,10.75
2023-06-08T12:16:50.022Z,10.60
2023-06-08T12:19:57.164Z,11.07
2023-06-08T12:23:02.358Z,10.55
2023-06-08T12:26:07.162Z,11.27
2023-06-08T12:29:14.186Z,9.93
2023-06-08T12:32:31.729Z,9.40
2023-06-08T12:35:42.732Z,9.27
2023-06-08T12:38:50.138Z,8.32
2023-06-08T12:41:54.641Z,7.32
2023-06-08T12:44:59.528Z,6.97
2023-06-08T12:48:04.798Z,6.80
2023-06-08T12:51:10.218Z,6.03
2023-06-08T12:57:20.692Z,6.88
2023-06-08T13:00:25.292Z,6.07
2023-06-08T13:03:29.951Z,8.17
2023-06-08T13:06:34.800Z,6.65
2023-06-08T13:09:41.286Z,6.90
2023-06-08T13:12:45.941Z,5.40
2023-06-08T13:15:55.704Z,4.80
2023-06-08T13:19:00.749Z,4.30
2023-06-08T13:22:06.905Z,3.67
2023-06-08T13:25:11.810Z,3.85
2023-06-08T13:28:16.663Z,3.67
2023-06-08T13:31:21.277Z,3.80
2023-06-08T13:34:35.911Z,4.00
2023-06-08T13:37:40.364Z,3.50
2023-06-08T13:40:45.399Z,3.58
2023-06-08T13:43:50.316Z,3.88
2023-06-08T13:46:57.169Z,3.40
2023-06-08T13:50:01.666Z,3.90
2023-06-08T13:53:07.782Z,2.67
2023-06-08T13:56:12.373Z,3.42
2023-06-08T13:59:19.961Z,3.28
2023-06-08T14:02:26.760Z,3.38
2023-06-08T14:05:31.527Z,3.35
2023-06-08T14:08:36.000Z,2.97
2023-06-08T14:11:43.324Z,3.80
2023-06-08T14:14:51.886Z,3.22
2023-06-08T14:17:58.313Z,3.35
2023-06-08T14:21:02.934Z,3.53
2023-06-08T14:24:13.532Z,2.80
2023-06-08T14:27:18.480Z,3.15
2023-06-08T14:30:23.509Z,3.05
2023-06-08T14:33:27.725Z,3.30
2023-06-08T14:36:34.668Z,3.22
2023-06-08T14:39:39.066Z,3.20
2023-06-08T14:42:46.670Z,3.37
2023-06-08T14:45:54.442Z,3.35
2023-06-08T14:48:59.080Z,3.30
2023-06-08T14:52:05.089Z,3.20
2023-06-08T14:55:17.329Z,3.10
2023-06-08T14:58:22.508Z,3.00
2023-06-08T15:01:29.121Z,3.15
2023-06-08T15:04:33.519Z,3.00
2023-06-08T15:07:40.364Z,2.85
2023-06-08T15:10:44.651Z,3.42
2023-06-08T15:13:49.153Z,3.60
2023-06-08T15:16:55.809Z,3.42
2023-06-08T15:20:10.534Z,3.20
2023-06-08T15:23:18.597Z,3.20
2023-06-08T15:26:24.225Z,3.30
2023-06-08T15:29:28.889Z,3.25
2023-06-08T15:32:35.682Z,3.50
2023-06-08T15:35:43.100Z,3.20
2023-06-08T15:39:20.841Z,3.13
2023-06-08T15:42:25.398Z,2.90
2023-06-08T15:45:29.903Z,3.30
2023-06-08T15:48:36.654Z,3.28
2023-06-08T15:51:46.935Z,3.10
2023-06-08T15:54:51.471Z,3.30
2023-06-08T15:57:57.723Z,3.65
2023-06-08T16:01:02.104Z,3.53
2023-06-08T16:04:09.627Z,3.20
2023-06-08T16:07:14.132Z,3.22
2023-06-08T16:10:21.821Z,3.03
2023-06-08T16:13:28.935Z,2.97
2023-06-08T16:16:33.663Z,3.17
2023-06-08T16:19:37.893Z,3.25
2023-06-08T16:22:42.284Z,3.10
2023-06-08T16:25:48.998Z,3.17
2023-06-08T16:28:56.557Z,3.05
2023-06-08T16:32:02.534Z,3.25
2023-06-08T16:35:07.629Z,2.90
2023-06-08T16:38:12.366Z,3.25
2023-06-08T16:41:17.033Z,3.10
2023-06-08T16:44:25.912Z,3.30
2023-06-08T16:47:30.498Z,3.45
2023-06-08T16:50:35.242Z,3.30
2023-06-08T16:53:39.665Z,3.40
2023-06-08T16:56:47.194Z,3.10
2023-06-08T16:59:51.889Z,3.10
2023-06-08T17:02:59.709Z,3.00
2023-06-08T17:06:11.788Z,3.40
2023-06-08T17:09:16.444Z,3.28
2023-06-08T17:12:21.302Z,2.90
2023-06-08T17:15:28.515Z,3.30
2023-06-08T17:18:36.025Z,3.17
2023-06-08T17:21:48.199Z,3.03
2023-06-08T17:24:52.609Z,4.40
2023-06-08T17:27:57.132Z,3.58
2023-06-08T17:31:01.862Z,3.40
2023-06-08T17:34:06.576Z,3.20
2023-06-08T17:37:11.017Z,2.87
2023-06-08T17:40:15.692Z,3.35
2023-06-08T17:43:22.452Z,3.20
2023-06-08T17:46:27.118Z,2.90
2023-06-08T17:49:32.041Z,3.43
2023-06-08T17:52:39.292Z,3.33
2023-06-08T17:55:43.684Z,3.50
2023-06-08T17:58:51.397Z,3.72
2023-06-08T18:01:55.956Z,3.72
2023-06-08T18:05:00.345Z,3.20
2023-06-08T18:08:07.816Z,3.05
2023-06-08T18:11:12.325Z,3.90
2023-06-08T18:14:19.578Z,3.53
2023-06-08T18:17:26.292Z,3.28
2023-06-08T18:20:30.734Z,3.50
2023-06-08T18:23:38.060Z,3.17
2023-06-08T18:26:42.776Z,3.25
2023-06-08T18:29:47.313Z,3.65
2023-06-08T18:32:54.236Z,3.67
2023-06-08T18:36:02.370Z,3.13
2023-06-08T18:39:09.843Z,3.42
2023-06-08T18:42:14.441Z,3.60
2023-06-08T18:45:19.152Z,3.60
2023-06-08T18:48:34.687Z,3.35
2023-06-08T18:51:39.278Z,3.60
2023-06-08T18:54:43.835Z,3.80
2023-06-08T18:57:49.668Z,3.33
2023-06-08T19:00:56.860Z,4.10
2023-06-08T19:04:03.913Z,4.00
2023-06-08T19:07:11.730Z,4.50
2023-06-08T19:10:18.461Z,3.70
2023-06-08T19:13:39.791Z,4.25
2023-06-08T19:16:52.305Z,3.85
2023-06-08T19:19:57.104Z,3.92
2023-06-08T19:23:16.062Z,4.10
2023-06-08T19:26:20.641Z,4.13
2023-06-08T19:29:25.200Z,4.23
2023-06-08T19:32:39.028Z,4.30
2023-06-08T19:35:43.614Z,4.25
2023-06-08T19:38:57.155Z,3.85
2023-06-08T19:42:13.175Z,4.22
2023-06-08T19:45:17.783Z,4.30
2023-06-08T19:48:22.197Z,3.97
2023-06-08T20:00:08.927Z,4.18
2023-06-08T20:03:31.441Z,4.20
2023-06-08T20:06:41.672Z,3.75
2023-06-08T20:09:47.397Z,4.28
2023-06-08T20:13:00.659Z,4.35
2023-06-08T20:16:08.419Z,4.70
2023-06-08T20:19:14.073Z,4.38
2023-06-08T20:22:18.460Z,3.97
2023-06-08T20:25:24.229Z,4.68
2023-06-08T20:28:28.747Z,4.55
2023-06-08T20:31:35.371Z,4.47
2023-06-08T20:34:42.508Z,4.05
2023-06-08T20:37:47.519Z,4.22
2023-06-08T20:40:54.465Z,4.30
2023-06-08T20:43:58.937Z,3.70
2023-06-08T20:47:12.113Z,4.20
2023-06-08T20:50:23.739Z,3.90
2023-06-08T20:53:30.594Z,4.72
2023-06-08T20:56:40.695Z,4.18
2023-06-08T21:01:01.380Z,4.72
2023-06-08T21:05:27.181Z,4.55
2023-06-08T21:13:03.213Z,4.40
2023-06-08T21:16:23.946Z,4.53
2023-06-08T21:19:36.182Z,4.20
2023-06-08T21:22:50.822Z,4.55
2023-06-08T21:26:12.753Z,4.50
2023-06-08T21:29:24.776Z,4.38
2023-06-08T21:32:38.156Z,4.38
2023-06-08T21:36:05.778Z,4.75
2023-06-08T21:42:40.235Z,5.10
2023-06-08T21:50:19.394Z,4.00
2023-06-08T22:01:32.129Z,4.57
2023-06-08T22:04:41.975Z,4.25
2023-06-08T22:07:49.206Z,4.13
2023-06-08T22:10:58.340Z,4.57
2023-06-08T22:14:04.779Z,4.18
2023-06-08T22:17:33.005Z,3.80
2023-06-08T22:25:58.843Z,3.50
2023-06-08T22:35:00.571Z,4.30
2023-06-08T22:41:38.320Z,3.83
2023-06-08T22:44:42.948Z,3.78
2023-06-08T22:47:54.916Z,4.03
2023-06-08T22:51:04.625Z,3.83
2023-06-08T22:54:10.792Z,3.90
2023-06-08T22:57:23.153Z,3.60
2023-06-08T23:00:28.515Z,3.38
2023-06-08T23:06:47.898Z,4.03
2023-06-08T23:09:58.099Z,4.35
2023-06-08T23:13:07.390Z,5.10
2023-06-08T23:16:18.378Z,4.32
2023-06-08T23:19:36.291Z,4.35
2023-06-08T23:22:46.048Z,4.75
2023-06-08T23:26:08.767Z,6.78
2023-06-08T23:29:16.386Z,3.70
2023-06-08T23:32:24.151Z,3.83
2023-06-08T23:35:33.371Z,3.75
2023-06-08T23:38:37.961Z,3.38
2023-06-08T23:41:54.014Z,3.40
2023-06-08T23:45:00.867Z,3.25
2023-06-08T23:48:26.340Z,3.17
2023-06-08T23:51:30.850Z,3.10
2023-06-08T23:54:38.640Z,3.25
2023-06-08T23:57:46.183Z,3.67
